Impacts TAF Board INFO
FOR SITUATIONAL AWARENESS. NOT TO BE USED FOR FLIGHT PLANNING PURPOSES.
IDs:

KBWI - Baltimore-Washington, MD, US

Issued at 2104 UTC 13 Dec 2017
Updated at 2235 UTC 13 Dec 2017
Potential Impact None Slight Moderate High
Time2154Z 13/23Z 14/00Z 14/01Z 14/02Z 14/03Z 14/04Z 14/05Z 14/06Z 14/07Z 14/08Z 14/09Z 14/10Z 14/11Z>>
Type OBS PRVL PRVL PRVL PRVL PRVL PRVL PRVL PRVL PRVL PRVL PRVL PRVL PRVL
VIS 10 >6 >6 >6 >6 >6 >6 >6 >6 >6 >6 >6 >6 >6
CIG 250 70 70 70 70 70 70 70 70 70 70 60 60 60
Cover BKN BKN BKN OVC OVC OVC OVC OVC OVC OVC OVC OVC OVC OVC
FltCat VFR VFR VFR VFR VFR VFR VFR VFR VFR VFR VFR VFR VFR VFR
WX -- -- -- VCSH VCSH VCSH VCSH VCSH VCSH VCSH VCSH -- -- --
WDir 260 230 230 170 170 170 170 170 170 170 170 230 230 230
WSpd 4 5 5 5 5 5 5 5 5 5 5 8 8 8
WGst -- -- -- -- -- -- -- -- -- -- -- -- -- --

Raw TAF
KBWI 132104Z 1321/1424 26009KT P6SM BKN100 BKN250
  FM132300 23005KT P6SM BKN070 BKN150
  FM140100 17005KT P6SM VCSH OVC070
  FM140900 23008KT P6SM BKN060 OVC120
  FM141400 30010KT P6SM FEW040 SCT080


Raw METAR
KBWI 132154Z 26004KT 10SM SCT120 SCT180 BKN250 M01/M13 A2975 RMK AO2 SLP074 ACSL S-W T10111133
KBWI 132054Z 26009KT 10SM FEW130 FEW180 SCT250 M01/M14 A2975 RMK AO2 SLP077 T10061139 56006
KBWI 131954Z 28012KT 10SM FEW180 FEW250 00/M14 A2975 RMK AO2 SLP077 T00001144

METAR Board
Radar Display
Forecast Discussion

FOR SITUATIONAL AWARENESS. NOT TO BE USED FOR FLIGHT PLANNING PURPOSES.